Time;durP1;ratioP1;P1;durP2;ratioP2;P2;SDS_P1;SDS_P2;PMS_P1;PMS_P2;Temp;Humidity;BMP_temperature;BMP_pressure;BME280_temperature;BME280_humidity;BME280_pressure;Samples;Min_cycle;Max_cycle;Signal;HPM_P1;HPM_P2
2022/06/21 00:01:17;;;;;;;;;;;13.00;99.90;;;;;;5111332;28;19926;-67
2022/06/21 00:03:43;;;;;;;;;;;12.90;99.90;;;;;;5111462;28;19927;-67
2022/06/21 00:06:12;;;;;;;;;;;12.90;99.90;;;;;;5114593;28;20399;-67
2022/06/21 00:08:38;;;;;;;;;;;12.80;99.90;;;;;;5114531;28;19924;-67
2022/06/21 00:11:09;;;;;;;;;;;12.80;99.90;;;;;;5114648;28;20414;-67
2022/06/21 00:13:34;;;;;;;;;;;12.80;99.90;;;;;;5114437;28;19930;-68
2022/06/21 00:16:09;;;;;;;;;;;12.70;99.90;;;;;;5114737;28;20018;-67
2022/06/21 00:18:36;;;;;;;;;;;12.50;99.90;;;;;;5113161;28;19920;-68
2022/06/21 00:21:02;;;;;;;;;;;12.40;99.90;;;;;;5114542;27;19972;-67
2022/06/21 00:23:29;;;;;;;;;;;12.50;99.90;;;;;;5114406;28;19963;-67
2022/06/21 00:25:54;;;;;;;;;;;12.50;99.90;;;;;;5114336;28;19919;-67
2022/06/21 00:28:21;;;;;;;;;;;12.50;99.90;;;;;;5114437;28;19926;-67
2022/06/21 00:30:47;;;;;;;;;;;12.50;99.90;;;;;;5114329;28;20476;-67
2022/06/21 00:33:14;;;;;;;;;;;12.50;99.90;;;;;;5114244;28;19927;-67
2022/06/21 00:35:41;;;;;;;;;;;12.50;99.90;;;;;;5114121;28;19931;-67
2022/06/21 00:38:09;;;;;;;;;;;12.50;99.90;;;;;;5114172;28;19926;-67
2022/06/21 00:40:34;;;;;;;;;;;12.50;99.90;;;;;;5113725;28;19920;-67
2022/06/21 00:43:00;;;;;;;;;;;12.50;99.90;;;;;;5114082;28;19944;-67
2022/06/21 00:45:27;;;;;;;;;;;12.20;99.90;;;;;;5113859;28;19920;-67
2022/06/21 00:47:55;;;;;;;;;;;12.10;99.90;;;;;;5114059;28;19988;-67
2022/06/21 00:50:31;;;;;;;;;;;12.20;99.90;;;;;;5112578;28;19927;-66
2022/06/21 00:52:59;;;;;;;;;;;12.20;99.90;;;;;;5112460;28;20758;-67
2022/06/21 00:55:28;;;;;;;;;;;12.30;99.90;;;;;;5113919;28;20463;-67
2022/06/21 00:57:54;;;;;;;;;;;12.20;99.90;;;;;;5113825;28;20360;-67
2022/06/21 01:00:23;;;;;;;;;;;12.20;99.90;;;;;;5113593;28;20045;-67
2022/06/21 01:02:48;;;;;;;;;;;12.20;99.90;;;;;;5113798;28;19980;-67
2022/06/21 01:05:14;;;;;;;;;;;12.20;99.90;;;;;;5113423;28;20016;-67
2022/06/21 01:07:39;;;;;;;;;;;12.20;99.90;;;;;;5113569;28;19930;-67
2022/06/21 01:10:07;;;;;;;;;;;12.10;99.90;;;;;;5113563;28;20482;-67
2022/06/21 01:12:37;;;;;;;;;;;12.10;99.90;;;;;;5113675;28;19930;-67
2022/06/21 01:15:08;;;;;;;;;;;12.10;99.90;;;;;;5111288;28;20415;-67
2022/06/21 01:17:34;;;;;;;;;;;12.10;99.90;;;;;;5113319;28;19941;-67
2022/06/21 01:20:01;;;;;;;;;;;12.20;99.90;;;;;;5111692;28;19972;-67
2022/06/21 01:22:41;;;;;;;;;;;12.20;99.90;;;;;;5113445;28;20278;-67
2022/06/21 01:25:06;;;;;;;;;;;12.00;99.90;;;;;;5113296;28;19923;-67
2022/06/21 01:27:32;;;;;;;;;;;11.70;99.90;;;;;;5113220;28;19946;-67
2022/06/21 01:29:58;;;;;;;;;;;11.60;99.90;;;;;;5112892;28;20342;-67
2022/06/21 01:32:23;;;;;;;;;;;11.60;99.90;;;;;;5113357;28;19953;-67
2022/06/21 01:34:49;;;;;;;;;;;11.60;99.90;;;;;;5113072;28;19923;-67
2022/06/21 01:37:18;;;;;;;;;;;11.60;99.90;;;;;;5113201;28;19982;-67
2022/06/21 01:39:46;;;;;;;;;;;11.60;99.90;;;;;;5112612;28;19920;-67
2022/06/21 01:42:17;;;;;;;;;;;11.60;99.90;;;;;;5113017;28;19943;-67
2022/06/21 01:44:45;;;;;;;;;;;11.40;99.90;;;;;;5112819;28;20318;-67
2022/06/21 01:47:13;;;;;;;;;;;11.30;99.90;;;;;;5112856;28;19919;-67
2022/06/21 01:49:41;;;;;;;;;;;11.40;99.90;;;;;;5112742;28;19927;-67
2022/06/21 01:52:12;;;;;;;;;;;11.50;99.90;;;;;;5113023;28;20319;-67
2022/06/21 01:54:39;;;;;;;;;;;11.50;99.90;;;;;;5112662;28;19958;-65
2022/06/21 01:57:09;;;;;;;;;;;11.50;99.90;;;;;;5112700;28;20550;-68
2022/06/21 01:59:38;;;;;;;;;;;11.50;99.90;;;;;;5112098;28;19968;-66
2022/06/21 02:02:08;;;;;;;;;;;11.50;99.90;;;;;;5112828;28;20002;-66
2022/06/21 02:04:36;;;;;;;;;;;11.50;99.90;;;;;;5112331;28;19926;-66
2022/06/21 02:07:04;;;;;;;;;;;11.50;99.90;;;;;;5112885;28;20338;-66
2022/06/21 02:09:44;;;;;;;;;;;11.50;99.90;;;;;;5112132;28;20101;-65
2022/06/21 02:12:11;;;;;;;;;;;11.50;99.90;;;;;;5112312;28;20594;-66
2022/06/21 02:14:45;;;;;;;;;;;11.50;99.90;;;;;;5112410;28;19928;-65
2022/06/21 02:17:24;;;;;;;;;;;11.40;99.90;;;;;;5112345;28;19951;-66
2022/06/21 02:20:00;;;;;;;;;;;11.40;99.90;;;;;;5111972;28;19923;-66
2022/06/21 02:22:27;;;;;;;;;;;11.40;99.90;;;;;;5112164;28;19942;-66
2022/06/21 02:24:53;;;;;;;;;;;11.20;99.90;;;;;;5112098;28;19927;-66
2022/06/21 02:27:20;;;;;;;;;;;11.30;99.90;;;;;;5111988;28;19927;-66
2022/06/21 02:29:49;;;;;;;;;;;11.20;99.90;;;;;;5111934;28;19920;-66
2022/06/21 02:32:20;;;;;;;;;;;11.10;99.90;;;;;;5112127;28;19920;-66
2022/06/21 02:34:47;;;;;;;;;;;11.00;99.90;;;;;;5111884;28;20403;-66
2022/06/21 02:37:14;;;;;;;;;;;11.00;99.90;;;;;;5112037;28;20272;-66
2022/06/21 02:39:39;;;;;;;;;;;10.90;99.90;;;;;;5111923;28;19926;-66
2022/06/21 02:42:15;;;;;;;;;;;10.80;99.90;;;;;;5112020;28;19920;-66
2022/06/21 02:44:43;;;;;;;;;;;10.80;99.90;;;;;;5111918;28;19926;-66
2022/06/21 02:47:15;;;;;;;;;;;10.80;99.90;;;;;;5112010;28;19959;-66
2022/06/21 02:49:49;;;;;;;;;;;10.70;99.90;;;;;;5111414;28;19927;-66
2022/06/21 02:52:23;;;;;;;;;;;10.50;99.90;;;;;;5111988;28;19958;-67
2022/06/21 02:54:52;;;;;;;;;;;10.60;99.90;;;;;;5111645;28;19931;-66
2022/06/21 02:57:18;;;;;;;;;;;10.60;99.90;;;;;;5111845;28;20339;-66
2022/06/21 02:59:44;;;;;;;;;;;10.70;99.90;;;;;;5111349;28;20008;-65
2022/06/21 03:02:11;;;;;;;;;;;10.70;99.90;;;;;;5110866;28;19924;-65
2022/06/21 03:04:43;;;;;;;;;;;10.70;99.90;;;;;;5108233;28;19920;-66
2022/06/21 03:07:13;;;;;;;;;;;10.60;99.90;;;;;;5108835;28;19920;-66
2022/06/21 03:09:38;;;;;;;;;;;10.60;99.90;;;;;;5109421;28;19924;-66
2022/06/21 03:12:05;;;;;;;;;;;10.40;99.90;;;;;;5111008;28;19994;-65
2022/06/21 03:14:32;;;;;;;;;;;10.30;99.90;;;;;;5110757;28;19931;-65
2022/06/21 03:17:00;;;;;;;;;;;10.30;99.90;;;;;;5111203;28;19972;-65
2022/06/21 03:19:43;;;;;;;;;;;10.40;99.90;;;;;;5110551;28;19926;-66
2022/06/21 03:22:23;;;;;;;;;;;10.30;99.90;;;;;;5111309;28;19963;-66
2022/06/21 03:24:51;;;;;;;;;;;10.40;99.90;;;;;;5111768;28;19920;-66
2022/06/21 03:27:22;;;;;;;;;;;10.30;99.90;;;;;;5111740;28;20456;-65
2022/06/21 03:29:48;;;;;;;;;;;10.30;99.90;;;;;;5111482;28;19949;-66
2022/06/21 03:32:14;;;;;;;;;;;10.30;99.90;;;;;;5111584;28;20002;-66
2022/06/21 03:34:40;;;;;;;;;;;10.10;99.90;;;;;;5111341;28;20045;-66
2022/06/21 03:37:06;;;;;;;;;;;10.10;99.90;;;;;;5111387;28;20348;-66
2022/06/21 03:42:17;;;;;;;;;;;10.20;99.90;;;;;;5115434;28;19927;-66
2022/06/21 03:44:45;;;;;;;;;;;10.20;99.90;;;;;;5115244;28;19924;-66
2022/06/21 03:47:19;;;;;;;;;;;10.30;99.90;;;;;;5115345;28;19931;-66
2022/06/21 03:49:48;;;;;;;;;;;10.40;99.90;;;;;;5114973;28;19920;-66
2022/06/21 03:52:41;;;;;;;;;;;10.40;99.90;;;;;;5114931;28;20295;-66
2022/06/21 03:55:10;;;;;;;;;;;10.50;99.90;;;;;;5115159;28;19924;-66
2022/06/21 03:57:37;;;;;;;;;;;10.40;99.90;;;;;;5115100;28;19963;-66
2022/06/21 04:00:05;;;;;;;;;;;10.30;99.90;;;;;;5114742;28;19931;-66
2022/06/21 04:02:39;;;;;;;;;;;10.40;99.90;;;;;;5114727;28;20448;-66
2022/06/21 04:05:09;;;;;;;;;;;10.40;99.90;;;;;;5114892;28;19926;-66
2022/06/21 04:07:48;;;;;;;;;;;10.40;99.90;;;;;;5114980;27;19964;-66
2022/06/21 04:10:37;;;;;;;;;;;10.40;99.90;;;;;;5113827;28;21299;-66
2022/06/21 04:13:14;;;;;;;;;;;10.30;99.90;;;;;;5114542;28;20399;-66
2022/06/21 04:16:01;;;;;;;;;;;10.20;99.90;;;;;;5113194;28;19930;-66
2022/06/21 04:18:37;;;;;;;;;;;10.10;99.90;;;;;;5114422;28;19943;-67
2022/06/21 04:21:10;;;;;;;;;;;10.10;99.90;;;;;;5114399;28;20001;-66
2022/06/21 04:23:44;;;;;;;;;;;10.10;99.90;;;;;;5114753;28;20272;-66
2022/06/21 04:26:17;;;;;;;;;;;10.20;99.90;;;;;;5114697;28;19924;-66
2022/06/21 04:28:47;;;;;;;;;;;10.40;99.90;;;;;;5114323;28;19931;-66
2022/06/21 04:31:16;;;;;;;;;;;10.50;99.90;;;;;;5114518;28;20791;-66
2022/06/21 04:33:52;;;;;;;;;;;10.60;99.90;;;;;;5114096;28;19924;-66
2022/06/21 04:36:34;;;;;;;;;;;10.70;99.90;;;;;;5114289;28;19931;-66
2022/06/21 04:39:06;;;;;;;;;;;10.70;99.90;;;;;;5114039;28;19938;-66
2022/06/21 04:41:40;;;;;;;;;;;10.60;99.90;;;;;;5114508;28;19920;-66
2022/06/21 04:44:26;;;;;;;;;;;10.60;99.90;;;;;;5114247;28;19943;-66
2022/06/21 04:46:58;;;;;;;;;;;10.80;99.90;;;;;;5099798;28;19927;-66
2022/06/21 04:49:38;;;;;;;;;;;10.80;99.90;;;;;;5112426;28;20033;-66
2022/06/21 04:52:13;;;;;;;;;;;10.80;99.90;;;;;;5114055;28;19927;-66
2022/06/21 04:54:39;;;;;;;;;;;11.00;99.90;;;;;;5113643;28;19948;-66
2022/06/21 04:57:10;;;;;;;;;;;11.10;99.90;;;;;;5112614;28;19920;-66
2022/06/21 04:59:41;;;;;;;;;;;11.40;99.90;;;;;;5112095;28;19927;-66
2022/06/21 05:02:11;;;;;;;;;;;11.50;99.90;;;;;;5113859;28;19920;-66
2022/06/21 05:04:38;;;;;;;;;;;11.60;99.90;;;;;;5113683;28;19920;-66
2022/06/21 05:07:06;;;;;;;;;;;11.70;99.90;;;;;;5113522;28;20011;-66
2022/06/21 05:09:33;;;;;;;;;;;11.80;99.90;;;;;;5113587;28;19931;-66
2022/06/21 05:12:07;;;;;;;;;;;11.90;99.90;;;;;;5113806;28;20401;-66
2022/06/21 05:14:36;;;;;;;;;;;11.90;99.90;;;;;;5113481;28;19947;-66
2022/06/21 05:17:04;;;;;;;;;;;12.00;99.90;;;;;;5112548;28;20547;-66
2022/06/21 05:19:32;;;;;;;;;;;12.00;99.90;;;;;;5113098;28;19927;-66
2022/06/21 05:22:04;;;;;;;;;;;12.10;99.90;;;;;;5113585;28;19931;-66
2022/06/21 05:24:30;;;;;;;;;;;12.10;99.90;;;;;;5113349;28;19955;-66
2022/06/21 05:27:11;;;;;;;;;;;12.10;99.90;;;;;;5113398;28;20596;-66
2022/06/21 05:29:40;;;;;;;;;;;12.20;99.90;;;;;;5112916;28;19926;-66
2022/06/21 05:32:11;;;;;;;;;;;12.30;99.90;;;;;;5113028;28;20455;-66
2022/06/21 05:34:39;;;;;;;;;;;12.20;99.90;;;;;;5112760;28;20460;-66
2022/06/21 05:37:13;;;;;;;;;;;12.40;99.90;;;;;;5113200;28;19994;-66
2022/06/21 05:39:42;;;;;;;;;;;12.40;99.90;;;;;;5112919;28;20357;-67
2022/06/21 05:42:11;;;;;;;;;;;12.40;99.90;;;;;;5112990;28;19919;-67
2022/06/21 05:44:42;;;;;;;;;;;12.50;99.90;;;;;;5112715;28;20020;-67
2022/06/21 05:47:14;;;;;;;;;;;12.50;99.90;;;;;;5113146;28;20000;-66
2022/06/21 05:49:40;;;;;;;;;;;12.60;99.90;;;;;;5112672;28;19927;-66
2022/06/21 05:52:07;;;;;;;;;;;12.60;99.90;;;;;;5112903;28;19965;-66
2022/06/21 05:54:35;;;;;;;;;;;12.70;99.90;;;;;;5112678;28;19927;-66
2022/06/21 05:57:02;;;;;;;;;;;12.70;99.90;;;;;;5112557;28;20419;-66
2022/06/21 05:59:27;;;;;;;;;;;12.80;99.90;;;;;;5112239;28;19993;-66
2022/06/21 06:01:57;;;;;;;;;;;12.90;99.90;;;;;;5112124;28;19923;-67
2022/06/21 06:04:30;;;;;;;;;;;13.00;99.90;;;;;;5112427;28;20002;-66
2022/06/21 06:06:57;;;;;;;;;;;13.30;99.90;;;;;;5112929;28;20295;-66
2022/06/21 06:09:25;;;;;;;;;;;13.60;99.90;;;;;;5112173;28;19920;-66
2022/06/21 06:12:00;;;;;;;;;;;13.80;99.90;;;;;;5112363;28;19923;-66
2022/06/21 06:14:32;;;;;;;;;;;13.80;99.90;;;;;;5112419;28;19931;-67
2022/06/21 06:16:58;;;;;;;;;;;14.10;99.90;;;;;;5112399;28;20019;-66
2022/06/21 06:19:34;;;;;;;;;;;14.30;99.90;;;;;;5110983;28;20391;-67
2022/06/21 06:22:06;;;;;;;;;;;14.50;99.90;;;;;;5112187;28;19930;-67
2022/06/21 06:24:35;;;;;;;;;;;14.80;99.90;;;;;;5112314;28;19920;-67
2022/06/21 06:27:02;;;;;;;;;;;14.70;99.90;;;;;;5112122;27;20335;-67
2022/06/21 06:29:30;;;;;;;;;;;14.90;99.90;;;;;;5111921;28;20042;-66
2022/06/21 06:32:05;;;;;;;;;;;15.00;99.90;;;;;;5112118;28;19972;-67
2022/06/21 06:34:34;;;;;;;;;;;15.20;99.90;;;;;;5111898;28;19934;-67
2022/06/21 06:37:04;;;;;;;;;;;15.20;99.90;;;;;;5112257;28;19920;-67
2022/06/21 06:39:32;;;;;;;;;;;15.20;99.90;;;;;;5111878;28;20087;-67
2022/06/21 06:42:04;;;;;;;;;;;15.20;99.90;;;;;;5112040;28;19927;-66
2022/06/21 06:44:36;;;;;;;;;;;15.30;99.90;;;;;;5111942;28;19924;-67
2022/06/21 06:47:02;;;;;;;;;;;15.40;99.90;;;;;;5111825;28;19920;-67
2022/06/21 06:49:34;;;;;;;;;;;15.50;99.90;;;;;;5111493;28;19946;-67
2022/06/21 06:52:02;;;;;;;;;;;15.70;99.90;;;;;;5111791;27;20391;-66
2022/06/21 06:54:31;;;;;;;;;;;15.80;99.90;;;;;;5111768;28;19928;-66
2022/06/21 06:57:00;;;;;;;;;;;15.80;99.90;;;;;;5111845;28;20338;-67
2022/06/21 06:59:26;;;;;;;;;;;15.80;99.90;;;;;;5111358;28;19995;-67
2022/06/21 07:01:57;;;;;;;;;;;16.00;99.90;;;;;;5111571;28;19962;-67
2022/06/21 07:04:23;;;;;;;;;;;15.90;99.90;;;;;;5111752;28;19982;-67
2022/06/21 07:07:01;;;;;;;;;;;16.00;99.90;;;;;;5111807;28;20334;-66
2022/06/21 07:09:32;;;;;;;;;;;16.30;99.90;;;;;;5111385;28;19923;-67
2022/06/21 07:12:04;;;;;;;;;;;16.20;99.90;;;;;;5111624;28;19977;-67
2022/06/21 07:14:30;;;;;;;;;;;16.40;99.90;;;;;;5115331;28;19924;-66
2022/06/21 07:17:03;;;;;;;;;;;16.30;99.90;;;;;;5115972;28;19980;-67
2022/06/21 07:19:29;;;;;;;;;;;16.10;99.90;;;;;;5115894;28;19920;-67
2022/06/21 07:21:55;;;;;;;;;;;15.90;99.90;;;;;;5115826;28;19988;-66
2022/06/21 07:24:21;;;;;;;;;;;16.00;99.90;;;;;;5115566;28;19919;-67
2022/06/21 07:26:59;;;;;;;;;;;16.00;99.90;;;;;;5115627;28;19920;-66
2022/06/21 07:29:27;;;;;;;;;;;16.10;99.90;;;;;;5115467;27;19965;-67
2022/06/21 07:31:56;;;;;;;;;;;15.80;99.90;;;;;;5115553;28;19931;-67
2022/06/21 07:34:37;;;;;;;;;;;15.90;99.90;;;;;;5115219;28;19924;-67
2022/06/21 07:37:21;;;;;;;;;;;15.70;99.90;;;;;;5115361;28;20365;-67
2022/06/21 07:39:49;;;;;;;;;;;16.00;99.90;;;;;;5115266;28;19923;-66
2022/06/21 07:42:23;;;;;;;;;;;16.30;99.90;;;;;;5115253;28;20388;-66
2022/06/21 07:44:53;;;;;;;;;;;16.40;99.90;;;;;;5115181;28;20015;-67
2022/06/21 07:47:21;;;;;;;;;;;16.70;99.90;;;;;;5115149;28;19931;-67
2022/06/21 07:49:49;;;;;;;;;;;16.50;99.90;;;;;;5114826;28;19977;-67
2022/06/21 07:52:18;;;;;;;;;;;16.60;99.90;;;;;;5115277;28;19919;-67
2022/06/21 07:54:55;;;;;;;;;;;16.90;99.90;;;;;;5115071;28;19923;-67
2022/06/21 07:57:23;;;;;;;;;;;16.70;99.90;;;;;;5115153;28;19930;-66
2022/06/21 07:59:54;;;;;;;;;;;16.90;99.90;;;;;;5113609;28;19924;-66
2022/06/21 08:08:01;;;;;;;;;;;17.20;99.90;;;;;;5114969;28;19962;-67
2022/06/21 08:10:26;;;;;;;;;;;17.40;99.90;;;;;;5114416;28;19972;-67
2022/06/21 08:12:53;;;;;;;;;;;17.50;99.90;;;;;;5114938;28;19924;-66
2022/06/21 08:15:19;;;;;;;;;;;17.60;99.90;;;;;;5114618;28;19958;-67
2022/06/21 08:17:53;;;;;;;;;;;17.70;99.90;;;;;;5114566;28;19951;-67
2022/06/21 08:20:37;;;;;;;;;;;17.80;99.90;;;;;;5114785;28;19927;-67
2022/06/21 08:23:07;;;;;;;;;;;17.90;99.90;;;;;;5114561;28;20014;-67
2022/06/21 08:25:32;;;;;;;;;;;17.80;99.90;;;;;;5113977;28;19930;-67
2022/06/21 08:28:06;;;;;;;;;;;17.90;99.90;;;;;;5114648;28;19919;-67
2022/06/21 08:30:38;;;;;;;;;;;17.80;99.90;;;;;;5112976;28;20002;-67
2022/06/21 08:33:08;;;;;;;;;;;18.00;99.90;;;;;;5114475;28;20329;-67
2022/06/21 08:35:37;;;;;;;;;;;18.10;99.90;;;;;;5113954;28;19928;-67
2022/06/21 08:38:35;;;;;;;;;;;18.10;99.90;;;;;;5114481;28;19928;-67
2022/06/21 08:41:51;;;;;;;;;;;18.20;99.90;;;;;;5031227;28;19968;-67
2022/06/21 08:43:58;;;;;;;;;;;18.40;99.90;;;;;;5030840;28;19925;-67
2022/06/21 08:46:26;;;;;;;;;;;18.40;99.90;;;;;;5031161;28;20360;-67
2022/06/21 08:49:06;;;;;;;;;;;18.40;99.90;;;;;;5030771;28;19928;-67
2022/06/21 08:51:40;;;;;;;;;;;18.60;99.90;;;;;;5030992;28;19927;-67
2022/06/21 08:54:11;;;;;;;;;;;18.50;99.90;;;;;;5030741;28;19971;-67
2022/06/21 08:56:43;;;;;;;;;;;18.40;99.90;;;;;;5030942;28;19940;-67
2022/06/21 08:59:08;;;;;;;;;;;18.50;99.90;;;;;;5030423;28;20302;-67
2022/06/21 09:01:34;;;;;;;;;;;18.70;99.90;;;;;;5030752;28;19928;-67
2022/06/21 09:04:05;;;;;;;;;;;18.60;99.90;;;;;;5030580;28;20528;-67
2022/06/21 09:06:49;;;;;;;;;;;18.40;99.90;;;;;;5030675;28;20636;-67
2022/06/21 09:09:15;;;;;;;;;;;18.50;99.90;;;;;;5030307;28;19975;-67
2022/06/21 09:11:43;;;;;;;;;;;18.60;99.90;;;;;;5030627;28;19925;-67
2022/06/21 09:14:41;;;;;;;;;;;18.50;99.90;;;;;;5030377;28;19925;-67
2022/06/21 09:17:25;;;;;;;;;;;18.60;99.90;;;;;;5055773;28;19927;-67
2022/06/21 09:20:01;;;;;;;;;;;18.80;99.90;;;;;;5113298;28;19962;-67
2022/06/21 09:22:38;;;;;;;;;;;18.80;99.90;;;;;;5113557;28;20288;-67
2022/06/21 09:25:13;;;;;;;;;;;19.00;99.90;;;;;;5113372;28;19943;-67
2022/06/21 09:27:41;;;;;;;;;;;19.10;99.90;;;;;;5113228;28;20405;-67
2022/06/21 09:30:12;;;;;;;;;;;19.00;99.90;;;;;;5113260;28;19924;-67
2022/06/21 09:32:40;;;;;;;;;;;18.90;99.90;;;;;;5113234;28;19931;-67
2022/06/21 09:35:06;;;;;;;;;;;19.10;99.90;;;;;;5113014;28;20333;-67
2022/06/21 09:37:48;;;;;;;;;;;19.20;99.90;;;;;;5112140;28;19972;-67
2022/06/21 09:40:23;;;;;;;;;;;19.10;99.90;;;;;;5112744;27;20307;-67
2022/06/21 09:43:07;;;;;;;;;;;19.30;99.90;;;;;;5113167;28;19920;-67
2022/06/21 09:45:35;;;;;;;;;;;19.40;99.90;;;;;;5112877;28;20395;-67
2022/06/21 09:48:01;;;;;;;;;;;19.50;99.90;;;;;;5112878;28;19923;-67
2022/06/21 09:50:43;;;;;;;;;;;19.60;99.90;;;;;;5112446;28;19941;-67
2022/06/21 09:53:09;;;;;;;;;;;19.80;99.90;;;;;;5113013;28;19920;-67
2022/06/21 09:55:34;;;;;;;;;;;19.80;99.90;;;;;;5112595;28;19931;-67
2022/06/21 09:58:05;;;;;;;;;;;19.50;99.90;;;;;;5112517;28;19928;-67
2022/06/21 10:00:38;;;;;;;;;;;19.50;99.90;;;;;;5112514;28;19983;-66
2022/06/21 10:03:03;;;;;;;;;;;19.70;99.90;;;;;;5112572;28;20299;-66
2022/06/21 10:05:37;;;;;;;;;;;19.90;99.90;;;;;;5112625;28;19920;-67
2022/06/21 10:08:12;;;;;;;;;;;20.00;99.90;;;;;;5112720;28;19919;-67
2022/06/21 10:10:46;;;;;;;;;;;19.90;99.90;;;;;;5112260;28;20311;-67
2022/06/21 10:13:31;;;;;;;;;;;19.90;99.90;;;;;;5112381;28;20015;-67
2022/06/21 10:16:04;;;;;;;;;;;20.00;99.90;;;;;;5112561;28;19924;-67
2022/06/21 10:18:30;;;;;;;;;;;20.10;99.90;;;;;;5112250;28;19935;-67
2022/06/21 10:20:58;;;;;;;;;;;20.00;99.90;;;;;;5112361;28;19920;-67
2022/06/21 10:23:44;;;;;;;;;;;20.10;99.90;;;;;;5110893;28;19919;-67
2022/06/21 10:26:13;;;;;;;;;;;19.90;99.90;;;;;;5111810;28;20337;-67
2022/06/21 10:28:44;;;;;;;;;;;19.90;99.90;;;;;;5110614;28;20014;-67
2022/06/21 10:31:45;;;;;;;;;;;20.00;99.90;;;;;;5112248;28;20311;-67
2022/06/21 10:34:22;;;;;;;;;;;20.10;99.90;;;;;;5028798;28;19925;-67
2022/06/21 10:37:06;;;;;;;;;;;20.00;99.90;;;;;;5100931;28;19927;-67
2022/06/21 10:39:50;;;;;;;;;;;20.00;99.90;;;;;;5111762;28;19926;-67
2022/06/21 10:45:21;;;;;;;;;;;20.00;99.90;;;;;;5112116;28;19923;-67
2022/06/21 10:47:52;;;;;;;;;;;19.90;99.90;;;;;;5111809;28;19920;-67
2022/06/21 10:50:27;;;;;;;;;;;19.80;99.90;;;;;;5111614;28;20016;-67
2022/06/21 10:52:56;;;;;;;;;;;19.90;99.90;;;;;;5111844;28;19924;-67
2022/06/21 10:55:36;;;;;;;;;;;19.90;99.90;;;;;;5110424;28;20034;-67
2022/06/21 10:58:11;;;;;;;;;;;20.10;99.90;;;;;;5111731;28;19919;-66
2022/06/21 11:03:37;;;;;;;;;;;20.20;99.90;;;;;;5111513;28;20388;-66
2022/06/21 11:06:11;;;;;;;;;;;20.50;99.90;;;;;;5111878;28;20015;-67
2022/06/21 11:08:56;;;;;;;;;;;20.50;99.90;;;;;;5111442;28;19926;-67
2022/06/21 11:11:21;;;;;;;;;;;20.70;99.90;;;;;;5111598;28;20340;-66
2022/06/21 11:14:05;;;;;;;;;;;20.70;99.90;;;;;;5111351;28;20011;-67
2022/06/21 11:16:39;;;;;;;;;;;20.80;99.90;;;;;;5111721;28;19935;-67
2022/06/21 11:19:13;;;;;;;;;;;20.80;99.90;;;;;;5111388;28;19920;-68
2022/06/21 11:21:39;;;;;;;;;;;21.00;99.90;;;;;;5111533;28;19920;-67
2022/06/21 11:24:04;;;;;;;;;;;21.10;99.90;;;;;;5111411;28;20431;-67
2022/06/21 11:26:30;;;;;;;;;;;21.10;99.90;;;;;;5111666;28;20378;-67
2022/06/21 11:28:55;;;;;;;;;;;21.30;99.90;;;;;;5109818;28;20303;-67
2022/06/21 11:31:38;;;;;;;;;;;21.40;99.20;;;;;;5111577;28;19942;-67
2022/06/21 11:34:03;;;;;;;;;;;21.10;98.50;;;;;;5111348;28;20311;-67
2022/06/21 11:36:40;;;;;;;;;;;21.20;98.70;;;;;;5111377;28;19920;-66
2022/06/21 11:39:06;;;;;;;;;;;21.30;98.60;;;;;;5111374;28;20012;-68
2022/06/21 11:44:26;;;;;;;;;;;21.30;98.80;;;;;;5111513;28;19964;-66
2022/06/21 11:46:56;;;;;;;;;;;21.20;98.50;;;;;;5111506;28;20022;-67
2022/06/21 11:49:37;;;;;;;;;;;21.10;98.60;;;;;;5111120;28;19952;-67
2022/06/21 11:52:14;;;;;;;;;;;21.10;98.60;;;;;;5111681;28;19920;-67
2022/06/21 11:54:45;;;;;;;;;;;21.20;98.40;;;;;;5111158;28;19989;-67
2022/06/21 11:57:14;;;;;;;;;;;21.10;97.90;;;;;;5110249;28;19924;-67
2022/06/21 11:59:47;;;;;;;;;;;21.10;97.00;;;;;;5111203;28;19920;-66
2022/06/21 12:02:29;;;;;;;;;;;21.10;97.50;;;;;;5115251;28;19947;-66
2022/06/21 12:05:00;;;;;;;;;;;21.20;97.40;;;;;;5115083;28;20015;-67
2022/06/21 12:07:43;;;;;;;;;;;20.90;96.50;;;;;;5115057;28;19920;-66
2022/06/21 12:10:14;;;;;;;;;;;21.00;96.70;;;;;;5114465;28;19920;-66
2022/06/21 12:12:42;;;;;;;;;;;21.00;97.20;;;;;;5114927;28;19920;-67
2022/06/21 12:15:26;;;;;;;;;;;21.10;97.40;;;;;;5114744;28;19927;-67
2022/06/21 12:17:58;;;;;;;;;;;20.90;96.80;;;;;;5114756;28;20610;-68
2022/06/21 12:20:25;;;;;;;;;;;20.90;97.10;;;;;;5113011;28;19930;-69
2022/06/21 12:22:54;;;;;;;;;;;20.90;96.50;;;;;;5114745;28;19927;-67
2022/06/21 12:25:19;;;;;;;;;;;21.20;97.60;;;;;;5114618;28;19919;-67
2022/06/21 12:27:46;;;;;;;;;;;21.20;96.90;;;;;;5113496;28;20349;-67
2022/06/21 12:30:19;;;;;;;;;;;21.10;96.00;;;;;;5114325;28;20314;-66
2022/06/21 12:32:45;;;;;;;;;;;21.10;96.30;;;;;;5114470;28;19928;-67
2022/06/21 12:35:15;;;;;;;;;;;21.20;96.50;;;;;;5114173;27;19931;-67
2022/06/21 12:37:44;;;;;;;;;;;21.20;96.60;;;;;;5114406;28;19920;-66
2022/06/21 12:40:26;;;;;;;;;;;21.30;97.10;;;;;;5112976;28;19967;-67
2022/06/21 12:43:06;;;;;;;;;;;21.20;95.60;;;;;;5114273;28;19998;-66
2022/06/21 12:45:44;;;;;;;;;;;21.20;96.80;;;;;;5113984;28;19920;-66
2022/06/21 12:48:15;;;;;;;;;;;21.40;96.70;;;;;;5114234;28;19920;-67
2022/06/21 12:50:46;;;;;;;;;;;21.70;96.40;;;;;;5113916;28;19923;-66
2022/06/21 12:53:15;;;;;;;;;;;21.70;95.90;;;;;;5113950;28;19924;-66
2022/06/21 12:55:49;;;;;;;;;;;21.60;95.20;;;;;;5113681;28;19927;-67
2022/06/21 12:58:30;;;;;;;;;;;21.80;95.80;;;;;;5113964;28;19924;-66
2022/06/21 13:00:57;;;;;;;;;;;22.00;95.70;;;;;;5114263;28;20277;-67
2022/06/21 13:03:32;;;;;;;;;;;22.10;94.80;;;;;;5114191;28;19931;-67
2022/06/21 13:06:03;;;;;;;;;;;21.80;92.30;;;;;;5113946;28;20010;-67
2022/06/21 13:08:34;;;;;;;;;;;21.60;92.90;;;;;;5113468;28;19923;-67
2022/06/21 13:11:24;;;;;;;;;;;21.80;94.00;;;;;;5113989;28;19930;-67
2022/06/21 13:13:49;;;;;;;;;;;22.00;94.60;;;;;;5075394;28;20010;-66
2022/06/21 13:16:20;;;;;;;;;;;22.10;94.20;;;;;;5113577;28;19998;-66
2022/06/21 13:19:00;;;;;;;;;;;22.30;92.80;;;;;;5113236;28;20308;-67
2022/06/21 13:21:33;;;;;;;;;;;22.30;92.10;;;;;;5113753;28;19927;-66
2022/06/21 13:24:08;;;;;;;;;;;22.10;92.50;;;;;;5113448;28;19978;-67
2022/06/21 13:26:46;;;;;;;;;;;22.10;91.30;;;;;;5113491;28;19926;-66
2022/06/21 13:29:32;;;;;;;;;;;22.00;91.70;;;;;;5112883;28;19919;-67
2022/06/21 13:32:00;;;;;;;;;;;22.00;93.60;;;;;;5113471;28;19924;-67
2022/06/21 13:34:31;;;;;;;;;;;22.00;92.00;;;;;;5113116;28;19931;-67
2022/06/21 13:36:59;;;;;;;;;;;22.10;92.60;;;;;;5113133;28;19919;-66
2022/06/21 13:39:24;;;;;;;;;;;22.20;92.50;;;;;;5112743;28;19958;-67
2022/06/21 13:44:53;;;;;;;;;;;22.10;90.50;;;;;;5113012;28;19920;-67
2022/06/21 13:47:28;;;;;;;;;;;22.00;90.50;;;;;;5112985;28;20421;-68
2022/06/21 13:50:02;;;;;;;;;;;22.10;92.50;;;;;;5111301;28;19924;-67
2022/06/21 13:52:35;;;;;;;;;;;22.30;92.60;;;;;;5112953;28;19983;-67
2022/06/21 13:55:06;;;;;;;;;;;22.40;92.80;;;;;;5112777;28;20341;-67
2022/06/21 13:57:50;;;;;;;;;;;22.40;91.50;;;;;;5112788;28;19933;-67
2022/06/21 14:00:17;;;;;;;;;;;22.30;91.40;;;;;;5112449;28;19926;-66
2022/06/21 14:02:47;;;;;;;;;;;22.30;91.20;;;;;;5112621;28;19920;-67
2022/06/21 14:05:13;;;;;;;;;;;22.70;91.30;;;;;;5112701;28;19924;-68
2022/06/21 14:07:44;;;;;;;;;;;22.50;89.00;;;;;;5112491;28;19942;-67
2022/06/21 14:10:13;;;;;;;;;;;22.40;90.20;;;;;;5111161;28;20170;-67
2022/06/21 14:12:39;;;;;;;;;;;22.50;89.90;;;;;;5111258;28;19928;-67
2022/06/21 14:15:23;;;;;;;;;;;22.40;88.90;;;;;;5112140;28;20426;-66
2022/06/21 14:17:57;;;;;;;;;;;22.40;90.00;;;;;;5112540;28;19935;-67
2022/06/21 14:20:32;;;;;;;;;;;22.50;89.20;;;;;;5112218;28;19920;-67
2022/06/21 14:23:06;;;;;;;;;;;22.50;90.10;;;;;;5111775;28;19969;-67
2022/06/21 14:25:43;;;;;;;;;;;22.40;89.30;;;;;;5112088;28;19927;-67
2022/06/21 14:28:09;;;;;;;;;;;22.30;89.90;;;;;;5112134;28;20376;-67
2022/06/21 14:30:39;;;;;;;;;;;22.30;90.30;;;;;;5112011;28;19919;-67
2022/06/21 14:33:10;;;;;;;;;;;22.40;90.10;;;;;;5112468;28;19927;-67
2022/06/21 14:35:51;;;;;;;;;;;22.30;90.70;;;;;;5111938;28;19968;-67
2022/06/21 14:38:35;;;;;;;;;;;22.30;90.10;;;;;;5112197;28;19924;-68
2022/06/21 14:41:10;;;;;;;;;;;22.10;89.50;;;;;;5112223;28;20276;-67
2022/06/21 14:43:35;;;;;;;;;;;22.20;91.10;;;;;;5112006;28;19927;-67
2022/06/21 14:46:10;;;;;;;;;;;22.10;89.80;;;;;;5112026;28;20311;-67
2022/06/21 14:48:41;;;;;;;;;;;22.30;90.50;;;;;;5111656;28;19920;-66
2022/06/21 14:51:16;;;;;;;;;;;22.40;90.80;;;;;;5111995;28;19920;-67
2022/06/21 14:53:47;;;;;;;;;;;22.60;89.70;;;;;;5111916;28;19919;-67
2022/06/21 14:56:15;;;;;;;;;;;22.60;90.20;;;;;;5111909;28;19963;-67
2022/06/21 14:58:41;;;;;;;;;;;22.70;89.10;;;;;;5111301;28;19920;-66
2022/06/21 15:01:06;;;;;;;;;;;22.70;89.70;;;;;;5111743;28;20444;-67